Terminal Aerodrome Forecast
Issued by NWS

Home | Current Version | Previous Version | Text Only | Print | Product List | Glossary On
Versions: 1 2 3 4 5 6 7 8 9 10 11 12 13 14 15 16
000
FTUS43 KAPX 231137
TAFTVC
TAF
KTVC 231137Z 2312/2412 16007KT P6SM OVC014 WS020/18035KT
     FM231300 19007KT 4SM -RA BR OVC012
     FM231700 23010KT 5SM BR OVC015
     FM232300 26010G20KT P6SM BKN015
     FM240200 28008KT P6SM BKN025
     FM240600 33006KT P6SM SCT035=

USA.gov is the U.S. government's official web portal to all federal, state and local government web resources and services.